Time;durP1;ratioP1;P1;durP2;ratioP2;P2;SDS_P1;SDS_P2;PMS_P1;PMS_P2;Temp;Humidity;BMP_temperature;BMP_pressure;BME280_temperature;BME280_humidity;BME280_pressure;Samples;Min_cycle;Max_cycle;Signal;HPM_P1;HPM_P2
2021/09/06 00:01:44;;;;;;;6.7;5.1;;;;;;;13.73;87.95508;943.1989;;;;
2021/09/06 00:04:10;;;;;;;5.2;4.5;;;;;;;13.7;88.35059;943.2626;;;;
2021/09/06 00:06:35;;;;;;;7.9;5;;;;;;;13.74;88.34863;943.2661;;;;
2021/09/06 00:09:01;;;;;;;7.9;5;;;;;;;13.79;87.62305;943.2831;;;;
2021/09/06 00:11:26;;;;;;;7.3;4.8;;;;;;;13.87;87.29297;943.2847;;;;
2021/09/06 00:13:51;;;;;;;6.1;4.6;;;;;;;13.95;86.74512;943.2081;;;;
2021/09/06 00:16:16;;;;;;;6.5;4.7;;;;;;;13.93;86.41699;943.305;;;;
2021/09/06 00:18:41;;;;;;;7.9;5.1;;;;;;;13.95;86.2959;943.313;;;;
2021/09/06 00:21:07;;;;;;;6.7;4.8;;;;;;;13.94;86.34082;943.2986;;;;
2021/09/06 00:23:31;;;;;;;7.3;4.6;;;;;;;13.88;86.4082;943.2943;;;;
2021/09/06 00:25:57;;;;;;;18.3;15.4;;;;;;;13.66;87.75879;943.2809;;;;
2021/09/06 00:28:22;;;;;;;24;21.5;;;;;;;13.58;88.51074;943.3066;;;;
2021/09/06 00:30:47;;;;;;;7.1;5.6;;;;;;;13.61;87.86328;943.2283;;;;
2021/09/06 00:33:12;;;;;;;7.2;4.8;;;;;;;13.58;87.87891;943.2802;;;;
2021/09/06 00:35:37;;;;;;;7;4.8;;;;;;;13.49;88.42578;943.2188;;;;
2021/09/06 00:38:02;;;;;;;7;5;;;;;;;13.52;88.55762;943.2773;;;;
2021/09/06 00:40:27;;;;;;;5.2;4.7;;;;;;;13.59;87.94922;943.3154;;;;
2021/09/06 00:42:53;;;;;;;7.4;5;;;;;;;13.66;87.27344;943.3401;;;;
2021/09/06 00:45:18;;;;;;;7.3;4.8;;;;;;;13.64;87.28223;943.3192;;;;
2021/09/06 00:47:43;;;;;;;5.2;4.3;;;;;;;13.67;87.1377;943.2578;;;;
2021/09/06 00:50:09;;;;;;;8.4;5.1;;;;;;;13.63;87.3623;943.3184;;;;
2021/09/06 00:52:33;;;;;;;6.1;4.6;;;;;;;13.52;87.5459;943.3118;;;;
2021/09/06 00:54:58;;;;;;;7.5;5.1;;;;;;;13.51;87.68164;943.3878;;;;
2021/09/06 00:57:23;;;;;;;6.3;4.5;;;;;;;13.44;87.70215;943.3384;;;;
2021/09/06 00:59:48;;;;;;;6.7;4.5;;;;;;;13.5;87.36914;943.4174;;;;
2021/09/06 01:02:13;;;;;;;6;4.7;;;;;;;13.48;87.38867;943.4412;;;;
2021/09/06 01:04:39;;;;;;;7;5.2;;;;;;;13.44;87.54102;943.3569;;;;
2021/09/06 01:07:41;;;;;;;6.6;4.9;;;;;;;13.48;87.51367;943.4172;;;;
2021/09/06 01:10:07;;;;;;;7.3;4.9;;;;;;;13.43;87.91797;943.3792;;;;
2021/09/06 01:12:32;;;;;;;6.8;4.9;;;;;;;13.32;88.4707;943.383;;;;
2021/09/06 01:14:57;;;;;;;6.1;4.5;;;;;;;13.19;89.58105;943.3976;;;;
2021/09/06 01:18:24;;;;;;;7.5;5;;;;;;;13.24;89.48633;943.3521;;;;
2021/09/06 01:20:34;;;;;;;6.6;4.4;;;;;;;13.17;89.74902;943.4028;;;;
2021/09/06 01:22:59;;;;;;;6.2;4.7;;;;;;;13.25;89.22656;943.4192;;;;
2021/09/06 01:25:24;;;;;;;6.2;4.9;;;;;;;13.31;88.86914;943.4246;;;;
2021/09/06 01:27:49;;;;;;;6.7;4.3;;;;;;;13.35;88.44043;943.448;;;;
2021/09/06 01:30:14;;;;;;;6.4;4.5;;;;;;;13.34;88.62207;943.435;;;;
2021/09/06 01:32:39;;;;;;;6;4.3;;;;;;;13.36;88.2373;943.4744;;;;
2021/09/06 01:35:04;;;;;;;6.2;4.6;;;;;;;13.34;88.12988;943.5279;;;;
2021/09/06 01:37:29;;;;;;;5.7;4.3;;;;;;;13.36;87.98438;943.4744;;;;
2021/09/06 01:39:55;;;;;;;6;4.5;;;;;;;13.32;88.33105;943.4902;;;;
2021/09/06 01:42:20;;;;;;;6.6;4.9;;;;;;;13.32;88.29688;943.4774;;;;
2021/09/06 01:44:45;;;;;;;5.6;4.1;;;;;;;13.19;89.07715;943.5344;;;;
2021/09/06 01:47:11;;;;;;;5.5;4.6;;;;;;;13.18;88.95898;943.6135;;;;
2021/09/06 01:49:36;;;;;;;6.2;4.8;;;;;;;13.12;89.29004;943.4864;;;;
2021/09/06 01:52:02;;;;;;;6.6;5.1;;;;;;;13.1;89.19629;943.5175;;;;
2021/09/06 01:54:27;;;;;;;6.9;4.8;;;;;;;13.15;88.81348;943.4978;;;;
2021/09/06 01:56:52;;;;;;;6;4.5;;;;;;;13.08;89.04199;943.4717;;;;
2021/09/06 01:59:17;;;;;;;6.5;4.8;;;;;;;12.79;91.11719;943.5078;;;;
2021/09/06 02:01:42;;;;;;;7;4.4;;;;;;;12.91;90.73828;943.5164;;;;
2021/09/06 02:04:07;;;;;;;7.7;4.8;;;;;;;12.91;90.28125;943.5244;;;;
2021/09/06 02:06:33;;;;;;;6.3;4.2;;;;;;;12.9;90.37109;943.5394;;;;
2021/09/06 02:08:58;;;;;;;5.7;4.7;;;;;;;12.9;90.6123;943.5098;;;;
2021/09/06 02:11:23;;;;;;;6.5;4.8;;;;;;;12.91;90.50098;943.4597;;;;
2021/09/06 02:13:48;;;;;;;5.9;4.2;;;;;;;12.99;90.35352;943.4714;;;;
2021/09/06 02:16:14;;;;;;;6.4;4.7;;;;;;;12.99;90.45801;943.4498;;;;
2021/09/06 02:18:39;;;;;;;6;4.8;;;;;;;12.96;90.77246;943.4832;;;;
2021/09/06 02:21:04;;;;;;;6.8;4.5;;;;;;;12.9;90.60059;943.5106;;;;
2021/09/06 02:23:29;;;;;;;7.1;4.5;;;;;;;12.81;91.21289;943.4888;;;;
2021/09/06 02:25:54;;;;;;;6.7;5.4;;;;;;;12.9;90.7959;943.4931;;;;
2021/09/06 02:28:19;;;;;;;5.8;4.5;;;;;;;12.93;90.69824;943.5117;;;;
2021/09/06 02:30:44;;;;;;;5.8;4.5;;;;;;;12.95;90.33594;943.4543;;;;
2021/09/06 02:33:09;;;;;;;6.5;4.9;;;;;;;12.91;90.76465;943.4788;;;;
2021/09/06 02:35:34;;;;;;;6.9;4.5;;;;;;;12.89;90.63281;943.461;;;;
2021/09/06 02:38:00;;;;;;;6.9;4.8;;;;;;;12.69;91.46387;943.3973;;;;
2021/09/06 02:40:25;;;;;;;6.3;4.4;;;;;;;12.8;91.39453;943.4383;;;;
2021/09/06 02:42:50;;;;;;;6;5;;;;;;;12.86;90.97168;943.4448;;;;
2021/09/06 02:45:15;;;;;;;8.5;4.7;;;;;;;12.93;90.65234;943.4966;;;;
2021/09/06 02:47:40;;;;;;;6.5;4.5;;;;;;;13.01;89.85547;943.4472;;;;
2021/09/06 02:50:05;;;;;;;6.2;4.6;;;;;;;13.14;88.81348;943.4347;;;;
2021/09/06 02:52:30;;;;;;;6.2;4.5;;;;;;;13.19;88.54492;943.4761;;;;
2021/09/06 02:54:55;;;;;;;6.8;4.9;;;;;;;13.19;88.28418;943.4417;;;;
2021/09/06 02:57:22;;;;;;;6;5;;;;;;;13.22;87.99121;943.4447;;;;
2021/09/06 02:59:47;;;;;;;6.3;4.7;;;;;;;13.22;87.77344;943.3926;;;;
2021/09/06 03:02:12;;;;;;;5.8;4.7;;;;;;;12.94;89.37012;943.4903;;;;
2021/09/06 03:04:37;;;;;;;6.9;4.6;;;;;;;12.94;89.49609;943.4766;;;;
2021/09/06 03:07:02;;;;;;;5.5;4.3;;;;;;;12.97;89.50195;943.4033;;;;
2021/09/06 03:09:27;;;;;;;6.8;5;;;;;;;12.95;89.29102;943.468;;;;
2021/09/06 03:11:52;;;;;;;6.1;4.3;;;;;;;13.04;88.91797;943.4586;;;;
2021/09/06 03:14:17;;;;;;;7.4;4.5;;;;;;;12.91;89.67285;943.4269;;;;
2021/09/06 03:16:43;;;;;;;7.6;4.6;;;;;;;12.89;89.81934;943.4835;;;;
2021/09/06 03:19:08;;;;;;;6.9;4.6;;;;;;;12.97;89.59375;943.4017;;;;
2021/09/06 03:21:33;;;;;;;7.3;4.9;;;;;;;13.04;89.24121;943.4274;;;;
2021/09/06 03:23:58;;;;;;;7.7;4.6;;;;;;;13.02;89.36133;943.3441;;;;
2021/09/06 03:26:23;;;;;;;6.8;5.1;;;;;;;13.03;89.55859;943.4146;;;;
2021/09/06 03:28:48;;;;;;;5.2;4.4;;;;;;;13.08;89.13379;943.4069;;;;
2021/09/06 03:31:15;;;;;;;6.9;4.6;;;;;;;13.06;89.09375;943.3364;;;;
2021/09/06 03:33:40;;;;;;;6.7;4.8;;;;;;;13.03;89.68555;943.3697;;;;
2021/09/06 03:36:05;;;;;;;6.5;4.8;;;;;;;13.05;89.86133;943.4019;;;;
2021/09/06 03:38:30;;;;;;;6.1;4.5;;;;;;;12.87;90.33105;943.4648;;;;
2021/09/06 03:40:55;;;;;;;5.2;4.5;;;;;;;12.99;90.05664;943.3516;;;;
2021/09/06 03:43:20;;;;;;;6.4;5;;;;;;;13.01;90.19824;943.3181;;;;
2021/09/06 03:45:47;;;;;;;6.2;5;;;;;;;13.24;88.91406;943.3279;;;;
2021/09/06 03:48:12;;;;;;;6.5;4.8;;;;;;;13.21;89.00977;943.3578;;;;
2021/09/06 03:50:37;;;;;;;7.3;4.6;;;;;;;13.13;89.73047;943.2506;;;;
2021/09/06 03:53:02;;;;;;;7.4;4.9;;;;;;;12.86;91.29297;943.3433;;;;
2021/09/06 03:55:27;;;;;;;7.9;4.9;;;;;;;12.93;91.06543;943.2952;;;;
2021/09/06 03:57:52;;;;;;;6.6;4.5;;;;;;;12.91;90.95996;943.3061;;;;
2021/09/06 04:02:31;;;;;;;8.3;4.6;;;;;;;12.9;91.33496;943.3404;;;;
2021/09/06 04:04:57;;;;;;;6;4.6;;;;;;;12.93;90.88184;943.3527;;;;
2021/09/06 04:07:21;;;;;;;7.5;4.7;;;;;;;12.98;90.50293;943.3459;;;;
2021/09/06 04:09:46;;;;;;;9;5.3;;;;;;;12.99;90.29785;943.338;;;;
2021/09/06 04:12:11;;;;;;;7;4.8;;;;;;;13.07;89.69434;943.3741;;;;
2021/09/06 04:14:36;;;;;;;7.2;4.9;;;;;;;13.11;89.42578;943.4064;;;;
2021/09/06 04:17:01;;;;;;;6.1;4.7;;;;;;;13.11;89.10449;943.4095;;;;
2021/09/06 04:19:30;;;;;;;6.4;4.6;;;;;;;13.17;88.73633;943.4564;;;;
2021/09/06 04:21:51;;;;;;;6.7;4.5;;;;;;;13.14;88.69824;943.4754;;;;
2021/09/06 04:24:16;;;;;;;6;4.6;;;;;;;13.09;88.78125;943.4638;;;;
2021/09/06 04:26:41;;;;;;;6.1;4.7;;;;;;;13.04;89;943.4522;;;;
2021/09/06 04:29:07;;;;;;;7.1;4.6;;;;;;;13;89.36914;943.4906;;;;
2021/09/06 04:31:32;;;;;;;6.7;4.4;;;;;;;12.9;89.91113;943.4899;;;;
2021/09/06 04:33:57;;;;;;;8.6;4.7;;;;;;;12.83;90.29883;943.5787;;;;
2021/09/06 04:36:22;;;;;;;6.7;5;;;;;;;12.75;90.96973;943.5129;;;;
2021/09/06 04:38:47;;;;;;;7.8;4.6;;;;;;;12.73;91.20703;943.5128;;;;
2021/09/06 04:41:13;;;;;;;7.6;4.5;;;;;;;12.77;90.79199;943.5491;;;;
2021/09/06 04:43:38;;;;;;;7.6;4.6;;;;;;;12.78;90.78223;943.5653;;;;
2021/09/06 04:46:04;;;;;;;8.9;4.8;;;;;;;12.79;90.20117;943.5901;;;;
2021/09/06 04:48:29;;;;;;;7.7;5;;;;;;;12.92;89.8584;943.6426;;;;
2021/09/06 04:50:55;;;;;;;7.8;5.1;;;;;;;12.85;90.25781;943.6404;;;;
2021/09/06 04:53:20;;;;;;;7.7;5.3;;;;;;;12.81;90.31738;943.6581;;;;
2021/09/06 04:55:45;;;;;;;6.6;5.3;;;;;;;12.81;90.35156;943.6583;;;;
2021/09/06 04:58:10;;;;;;;6.9;4.7;;;;;;;12.91;89.75293;943.7186;;;;
2021/09/06 05:00:35;;;;;;;8.2;4.9;;;;;;;12.76;90.24902;943.7328;;;;
2021/09/06 05:03:00;;;;;;;8.6;4.9;;;;;;;12.63;91.1748;943.7555;;;;
2021/09/06 05:05:26;;;;;;;7.6;4.9;;;;;;;12.61;91.6875;943.7701;;;;
2021/09/06 05:07:51;;;;;;;7.5;4.7;;;;;;;12.71;91.07715;943.7164;;;;
2021/09/06 05:10:16;;;;;;;7.9;5.1;;;;;;;12.88;90;943.7791;;;;
2021/09/06 05:12:41;;;;;;;9.7;5.6;;;;;;;12.83;89.64453;943.7762;;;;
2021/09/06 05:15:06;;;;;;;6.2;5;;;;;;;12.72;90.17285;943.8059;;;;
2021/09/06 05:17:31;;;;;;;9.6;5.5;;;;;;;12.61;90.97656;943.8373;;;;
2021/09/06 05:19:58;;;;;;;6.5;4.6;;;;;;;12.65;90.77734;943.858;;;;
2021/09/06 05:22:23;;;;;;;7.3;4.8;;;;;;;12.75;90.01758;943.8702;;;;
2021/09/06 05:24:53;;;;;;;8.3;4.7;;;;;;;12.69;89.99512;943.8688;;;;
2021/09/06 05:27:14;;;;;;;6.8;5;;;;;;;12.64;90.67383;943.9506;;;;
2021/09/06 05:29:39;;;;;;;7.4;5.1;;;;;;;12.77;90.22949;943.9135;;;;
2021/09/06 05:32:04;;;;;;;7.4;5;;;;;;;12.82;89.9541;944.0255;;;;
2021/09/06 05:34:29;;;;;;;8.5;4.6;;;;;;;12.9;89.25684;944.035;;;;
2021/09/06 05:36:54;;;;;;;8.2;4.8;;;;;;;12.97;88.7998;944.0613;;;;
2021/09/06 05:39:20;;;;;;;9.8;5.3;;;;;;;12.99;89.36719;944.0383;;;;
2021/09/06 05:41:56;;;;;;;8.1;5.4;;;;;;;13.12;89.03906;944.0374;;;;
2021/09/06 05:44:22;;;;;;;6.8;5;;;;;;;13.42;88.08887;944.0031;;;;
2021/09/06 05:46:47;;;;;;;6.5;4.4;;;;;;;13.5;88.19727;944.0229;;;;
2021/09/06 05:49:12;;;;;;;5.4;4.3;;;;;;;13.59;88.60449;944.0251;;;;
2021/09/06 05:51:37;;;;;;;8.2;4;;;;;;;13.7;88.53613;943.9534;;;;
2021/09/06 05:54:03;;;;;;;7.4;4.4;;;;;;;13.86;88.34961;944.0131;;;;
2021/09/06 05:56:29;;;;;;;6.1;4.3;;;;;;;14.06;86.99707;943.9568;;;;
2021/09/06 05:58:54;;;;;;;7;4.1;;;;;;;14.14;86.7041;944.0222;;;;
2021/09/06 06:01:19;;;;;;;6.7;4.1;;;;;;;14.26;86.2998;944.0447;;;;
2021/09/06 06:03:45;;;;;;;6;4;;;;;;;14.29;86.19141;944.0023;;;;
2021/09/06 06:06:10;;;;;;;5.3;4;;;;;;;14.85;83.67285;943.9451;;;;
2021/09/06 06:08:35;;;;;;;6.5;3.9;;;;;;;16.5;77.56348;943.9397;;;;
2021/09/06 06:11:01;;;;;;;5.7;3.7;;;;;;;18.56;68.25391;943.9448;;;;
2021/09/06 06:13:26;;;;;;;4.8;3.5;;;;;;;17.7;68.80566;943.9567;;;;
2021/09/06 06:15:53;;;;;;;6.3;3.9;;;;;;;18.36;68.75781;943.9436;;;;
2021/09/06 06:18:18;;;;;;;4.4;3.7;;;;;;;19.32;63.76953;943.9149;;;;
2021/09/06 06:20:43;;;;;;;5.2;3.6;;;;;;;20.35;59.90137;943.9297;;;;
2021/09/06 06:23:09;;;;;;;3.8;3.1;;;;;;;20.83;57.40625;943.9123;;;;
2021/09/06 06:25:36;;;;;;;4.4;3.1;;;;;;;21.02;56.74121;943.9188;;;;
2021/09/06 06:28:01;;;;;;;4.3;3.2;;;;;;;21.26;56.4209;943.9063;;;;
2021/09/06 06:30:26;;;;;;;4.8;3;;;;;;;22.37;53.32422;943.9146;;;;
2021/09/06 06:32:52;;;;;;;3.8;2.8;;;;;;;23.8;50.53223;943.8871;;;;
2021/09/06 06:35:18;;;;;;;3.6;3.1;;;;;;;25.2;45.6377;943.8727;;;;
2021/09/06 06:37:44;;;;;;;6;3.1;;;;;;;25.71;44.37793;943.8979;;;;
2021/09/06 06:40:09;;;;;;;3.6;3;;;;;;;25.99;44.10938;943.9201;;;;
2021/09/06 06:42:34;;;;;;;2.9;2.7;;;;;;;25.19;44.59766;943.9155;;;;
2021/09/06 06:45:00;;;;;;;4.9;3.1;;;;;;;25.12;44.93262;943.9191;;;;
2021/09/06 06:47:26;;;;;;;4.3;3.1;;;;;;;23.64;47.83008;943.9364;;;;
2021/09/06 06:49:51;;;;;;;3.1;2.8;;;;;;;22.78;50.0166;943.9733;;;;
2021/09/06 06:52:16;;;;;;;4.5;3;;;;;;;23.76;49.04395;943.9356;;;;
2021/09/06 06:54:43;;;;;;;3.4;2.9;;;;;;;24.24;47.76563;943.9451;;;;
2021/09/06 06:57:07;;;;;;;3.4;3;;;;;;;24.65;46.79492;943.8884;;;;
2021/09/06 06:59:32;;;;;;;4.6;3.2;;;;;;;25.23;45.65234;943.8962;;;;
2021/09/06 07:01:57;;;;;;;3.7;3.1;;;;;;;25.03;45.13574;943.9238;;;;
2021/09/06 07:04:23;;;;;;;3.6;3;;;;;;;25.64;45.375;943.9543;;;;
2021/09/06 07:06:48;;;;;;;3.5;3;;;;;;;25.65;43.99316;943.9572;;;;
2021/09/06 07:09:13;;;;;;;4.1;3.2;;;;;;;24.92;45.59668;943.9211;;;;
2021/09/06 07:11:38;;;;;;;5.7;3.1;;;;;;;24.54;47.66797;943.9487;;;;
2021/09/06 07:14:03;;;;;;;4.7;3.1;;;;;;;24.04;49.09766;943.9622;;;;
2021/09/06 07:16:28;;;;;;;4.5;2.9;;;;;;;24.54;47.69141;943.9922;;;;
2021/09/06 07:18:53;;;;;;;4.7;3.1;;;;;;;25.06;47.06152;944.0754;;;;
2021/09/06 07:21:19;;;;;;;3.5;3;;;;;;;25.24;46.16113;944.0148;;;;
2021/09/06 07:23:44;;;;;;;5.1;3;;;;;;;24.97;46.71094;944.0276;;;;
2021/09/06 07:26:09;;;;;;;5.5;3.2;;;;;;;25.52;45.18555;944.0255;;;;
2021/09/06 07:28:34;;;;;;;4;3;;;;;;;25.37;43.84668;944.0689;;;;
2021/09/06 07:30:59;;;;;;;3.4;2.8;;;;;;;25.6;44.54297;944.0463;;;;
2021/09/06 07:33:25;;;;;;;4.3;2.7;;;;;;;25.88;45.02148;944.1376;;;;
2021/09/06 07:35:50;;;;;;;3.6;2.6;;;;;;;26.45;42.58008;944.1113;;;;
2021/09/06 07:38:15;;;;;;;3.5;3;;;;;;;26.72;42.99609;944.0737;;;;
2021/09/06 07:40:40;;;;;;;3.6;2.9;;;;;;;26.44;42.875;944.0872;;;;
2021/09/06 07:43:05;;;;;;;4.8;2.8;;;;;;;26.18;42.49512;944.1094;;;;
2021/09/06 07:45:30;;;;;;;3.4;2.7;;;;;;;26.91;41.47461;944.0628;;;;
2021/09/06 07:47:55;;;;;;;4.1;3.2;;;;;;;26.81;41.46484;944.1824;;;;
2021/09/06 07:50:20;;;;;;;4.4;3.4;;;;;;;26.62;41.47168;944.1944;;;;
2021/09/06 07:52:46;;;;;;;4.9;3.6;;;;;;;27.11;41.29199;944.2079;;;;
2021/09/06 07:55:11;;;;;;;4.1;3.2;;;;;;;26.9;42.32617;944.1852;;;;
2021/09/06 07:57:36;;;;;;;4.7;3;;;;;;;28.23;41.46582;944.142;;;;
2021/09/06 08:00:01;;;;;;;4.1;3.2;;;;;;;27.39;43.64258;944.1479;;;;
2021/09/06 08:02:26;;;;;;;5.7;3.2;;;;;;;26.8;45.03125;944.1713;;;;
2021/09/06 08:04:51;;;;;;;5.3;3.4;;;;;;;28.22;42.1416;944.1473;;;;
2021/09/06 08:07:16;;;;;;;4.6;3.1;;;;;;;27.68;43.99023;944.1666;;;;
2021/09/06 08:09:41;;;;;;;3.8;3.2;;;;;;;27.59;44.17188;944.1733;;;;
2021/09/06 08:12:08;;;;;;;5.4;3.1;;;;;;;28.87;40.91797;944.1878;;;;
2021/09/06 08:14:32;;;;;;;4.3;3.3;;;;;;;29.74;39.17188;944.176;;;;
2021/09/06 08:16:57;;;;;;;6.9;3.4;;;;;;;29.6;39.85156;944.1359;;;;
2021/09/06 08:19:23;;;;;;;3;2.7;;;;;;;28.58;40.13086;944.2045;;;;
2021/09/06 08:21:48;;;;;;;5.5;3.3;;;;;;;30.6;37.51465;944.2356;;;;
2021/09/06 08:24:14;;;;;;;4.9;3.3;;;;;;;30.08;38.44922;944.2012;;;;
2021/09/06 08:26:39;;;;;;;4.2;3.3;;;;;;;30.64;36.5625;944.2056;;;;
2021/09/06 08:29:04;;;;;;;4.1;3.1;;;;;;;31.72;34.54102;944.1372;;;;
2021/09/06 08:31:30;;;;;;;3.6;3;;;;;;;29.17;39.54004;944.2272;;;;
2021/09/06 08:33:55;;;;;;;3.6;3.2;;;;;;;28.59;41.07129;944.2302;;;;
2021/09/06 08:36:20;;;;;;;3.8;2.9;;;;;;;29.45;39.07617;944.2654;;;;
2021/09/06 08:38:45;;;;;;;4.4;3.1;;;;;;;30.02;36.22559;944.281;;;;
2021/09/06 08:41:11;;;;;;;3.3;2.9;;;;;;;32.04;32.86426;944.2463;;;;
2021/09/06 08:43:36;;;;;;;3.8;2.9;;;;;;;32.76;32.40039;944.2587;;;;
2021/09/06 08:46:02;;;;;;;3.6;3.1;;;;;;;33.33;31.3584;944.2325;;;;
2021/09/06 08:48:27;;;;;;;4.9;3.2;;;;;;;32.65;31.85156;944.212;;;;
2021/09/06 08:50:52;;;;;;;3.7;3;;;;;;;31.96;32.37793;944.1912;;;;
2021/09/06 08:53:17;;;;;;;5.2;2.6;;;;;;;31.85;31.92773;944.213;;;;
2021/09/06 08:55:42;;;;;;;3.1;2.8;;;;;;;31.69;32.41895;944.1711;;;;
2021/09/06 08:58:07;;;;;;;3.6;2.7;;;;;;;30.13;35.625;944.1348;;;;
2021/09/06 09:00:32;;;;;;;2.9;2.6;;;;;;;30.23;35.4541;944.1901;;;;
2021/09/06 09:02:58;;;;;;;4;2.8;;;;;;;30.8;34.49512;944.183;;;;
2021/09/06 09:05:23;;;;;;;4.7;3.1;;;;;;;31.12;34.96191;944.1829;;;;
2021/09/06 09:07:48;;;;;;;3.8;3;;;;;;;31.04;36.29492;944.1955;;;;
2021/09/06 09:10:13;;;;;;;3.7;2.7;;;;;;;30.17;36.29785;944.1713;;;;
2021/09/06 09:12:38;;;;;;;3.4;2.5;;;;;;;28.62;38.86133;944.1647;;;;
2021/09/06 09:15:03;;;;;;;3.1;2.8;;;;;;;27.37;42.20508;944.1826;;;;
2021/09/06 09:17:28;;;;;;;3.6;2.6;;;;;;;27.52;40.92578;944.2209;;;;
2021/09/06 09:19:53;;;;;;;3.7;2.7;;;;;;;26.44;43.38379;944.2767;;;;
2021/09/06 09:22:18;;;;;;;3.2;2.7;;;;;;;27.03;42.10254;944.2542;;;;
2021/09/06 09:24:43;;;;;;;3.1;2.8;;;;;;;26.69;46.51172;944.2817;;;;
2021/09/06 09:27:09;;;;;;;3.1;2.7;;;;;;;26.25;45.51953;944.2047;;;;
2021/09/06 09:29:34;;;;;;;4.4;2.9;;;;;;;27.52;41.91016;944.2097;;;;
2021/09/06 09:31:59;;;;;;;3.6;3;;;;;;;27.21;45.27344;944.184;;;;
2021/09/06 09:34:25;;;;;;;4.7;3.2;;;;;;;26.04;48.63281;944.2873;;;;
2021/09/06 09:36:50;;;;;;;3.7;3.2;;;;;;;25.72;48.47852;944.2502;;;;
2021/09/06 09:39:17;;;;;;;4.2;3.3;;;;;;;24.49;51.24609;944.1876;;;;
2021/09/06 09:41:42;;;;;;;5;3.4;;;;;;;24;51.94238;944.2009;;;;
2021/09/06 09:44:07;;;;;;;3.9;3.1;;;;;;;24.05;52.19629;944.1635;;;;
2021/09/06 09:46:33;;;;;;;3.7;3.2;;;;;;;24.27;53.30566;944.1883;;;;
2021/09/06 09:48:58;;;;;;;4.3;3.5;;;;;;;24.45;53.3623;944.1939;;;;
2021/09/06 09:51:23;;;;;;;5.4;3.6;;;;;;;24.04;56.23242;944.1803;;;;
2021/09/06 09:53:48;;;;;;;6.2;3.8;;;;;;;24.08;55.20215;944.2219;;;;
2021/09/06 09:56:14;;;;;;;4.8;3.4;;;;;;;24.28;53.03613;944.1877;;;;
2021/09/06 09:58:39;;;;;;;5.1;3.7;;;;;;;24.21;56.37207;944.2079;;;;
2021/09/06 10:01:05;;;;;;;3.9;3.1;;;;;;;24.81;50.31445;944.1962;;;;
2021/09/06 10:03:33;;;;;;;4.4;3.5;;;;;;;24.93;51.46094;944.1774;;;;
2021/09/06 10:05:54;;;;;;;4.9;3.4;;;;;;;25.43;49.34473;944.0927;;;;
2021/09/06 10:08:19;;;;;;;5.1;3.5;;;;;;;25.27;52.30469;944.0627;;;;
2021/09/06 10:10:44;;;;;;;4.7;3.6;;;;;;;24.2;55.91113;944.0748;;;;
2021/09/06 10:13:11;;;;;;;5;3.8;;;;;;;23.93;53.86523;944.0751;;;;
2021/09/06 10:15:35;;;;;;;5.2;3.6;;;;;;;24.49;53.55469;944.0249;;;;
2021/09/06 10:18:01;;;;;;;7.6;4.2;;;;;;;23.97;54.89453;943.9634;;;;
2021/09/06 10:20:26;;;;;;;14.8;7;;;;;;;24.46;54.36523;943.921;;;;
2021/09/06 10:22:51;;;;;;;17.9;7.6;;;;;;;25.78;50.83789;943.9425;;;;
2021/09/06 10:25:16;;;;;;;4.8;3.7;;;;;;;26.15;49.61426;943.8756;;;;
2021/09/06 10:27:42;;;;;;;4.5;3.5;;;;;;;25.86;52.77539;943.9018;;;;
2021/09/06 10:30:07;;;;;;;13.6;7.1;;;;;;;26.55;49.84766;943.8382;;;;
2021/09/06 10:32:32;;;;;;;4;3.6;;;;;;;27.23;46.75781;943.7188;;;;
2021/09/06 10:34:57;;;;;;;8.6;3.8;;;;;;;27.68;45.14258;943.8137;;;;
2021/09/06 10:37:22;;;;;;;5.1;3.6;;;;;;;27.94;45.73926;943.6622;;;;
2021/09/06 10:39:47;;;;;;;4.2;3.8;;;;;;;28.36;44.74707;943.738;;;;
2021/09/06 10:42:16;;;;;;;5;3.4;;;;;;;28.54;45.01465;943.7224;;;;
2021/09/06 10:44:39;;;;;;;5.2;3.6;;;;;;;28.86;44.90332;943.7474;;;;
2021/09/06 10:47:04;;;;;;;8.1;3.7;;;;;;;28.68;44.13672;943.6758;;;;
2021/09/06 10:49:29;;;;;;;3.9;3.3;;;;;;;28.07;46.22754;943.6689;;;;
2021/09/06 10:51:54;;;;;;;4.2;3.6;;;;;;;27.57;47.60059;943.699;;;;
2021/09/06 10:54:19;;;;;;;5;3.9;;;;;;;27.19;48.5918;943.6788;;;;
2021/09/06 10:56:44;;;;;;;4;3.6;;;;;;;27.24;47.60059;943.5842;;;;
2021/09/06 10:59:10;;;;;;;4.6;3.4;;;;;;;28.4;44.56152;943.6046;;;;
2021/09/06 11:01:36;;;;;;;4.4;3.4;;;;;;;30.38;39.28809;943.6183;;;;
2021/09/06 11:04:00;;;;;;;4;3.4;;;;;;;30.2;41.36133;943.6193;;;;
2021/09/06 11:06:26;;;;;;;4.2;3.4;;;;;;;30.47;41.13379;943.5957;;;;
2021/09/06 11:08:52;;;;;;;4.8;3.7;;;;;;;29.92;41.86035;943.5876;;;;
2021/09/06 11:11:16;;;;;;;3.7;3.2;;;;;;;29.94;41.52734;943.5385;;;;
2021/09/06 11:13:41;;;;;;;4.1;3.5;;;;;;;29.63;43.03711;943.5175;;;;
2021/09/06 11:16:06;;;;;;;5.3;3.6;;;;;;;28.57;45.74316;943.5257;;;;
2021/09/06 11:18:31;;;;;;;3.9;3.1;;;;;;;28.42;44.9668;943.4691;;;;
2021/09/06 11:20:57;;;;;;;4.3;3.4;;;;;;;28.61;43.34473;943.4655;;;;
2021/09/06 11:23:21;;;;;;;5.2;3.6;;;;;;;28.03;45.81934;943.5112;;;;
2021/09/06 11:25:51;;;;;;;4.7;3.5;;;;;;;28.45;45.00684;943.5439;;;;
2021/09/06 11:28:12;;;;;;;4.7;3.6;;;;;;;29.19;41.75684;943.4576;;;;
2021/09/06 11:30:37;;;;;;;4.1;3.6;;;;;;;29.56;41.55273;943.5219;;;;
2021/09/06 11:33:04;;;;;;;4.7;3.5;;;;;;;29.75;40.92676;943.5471;;;;
2021/09/06 11:35:27;;;;;;;5.1;3.4;;;;;;;30.68;38.50098;943.5463;;;;
2021/09/06 11:37:52;;;;;;;4.2;3.6;;;;;;;29.68;41.16992;943.5094;;;;
2021/09/06 11:40:17;;;;;;;4.2;3.3;;;;;;;29.32;41.88867;943.5097;;;;
2021/09/06 11:42:42;;;;;;;4.8;3.5;;;;;;;28.88;43.24023;943.4902;;;;
2021/09/06 11:45:09;;;;;;;5.6;3.5;;;;;;;28.99;41.82129;943.5117;;;;
2021/09/06 11:47:33;;;;;;;5.3;4.1;;;;;;;28.92;41.93359;943.4384;;;;
2021/09/06 11:49:58;;;;;;;4.2;3.6;;;;;;;28.92;43.16016;943.4942;;;;
2021/09/06 11:52:23;;;;;;;4.2;3.5;;;;;;;30.19;41.62305;943.544;;;;
2021/09/06 11:54:49;;;;;;;5.9;3.8;;;;;;;30.85;38.4082;943.5107;;;;
2021/09/06 11:57:17;;;;;;;3.9;3.5;;;;;;;31.88;36.19531;943.5217;;;;
2021/09/06 11:59:39;;;;;;;4.1;3.4;;;;;;;31.77;35.63477;943.4255;;;;
2021/09/06 12:02:04;;;;;;;4.2;3.4;;;;;;;31.3;38.21875;943.4785;;;;
2021/09/06 12:04:29;;;;;;;4.1;3.4;;;;;;;30.2;38.91406;943.4316;;;;
2021/09/06 12:06:54;;;;;;;3.8;3.4;;;;;;;30.09;39.45313;943.4412;;;;
2021/09/06 12:09:20;;;;;;;3.9;3.2;;;;;;;31.21;36.83496;943.4375;;;;
2021/09/06 12:11:46;;;;;;;4.1;3.4;;;;;;;30.28;37.96582;943.4683;;;;
2021/09/06 12:14:11;;;;;;;5.1;3.5;;;;;;;29.61;39.8291;943.4793;;;;
2021/09/06 12:16:36;;;;;;;4.3;3.5;;;;;;;30.22;39.26172;943.515;;;;
2021/09/06 12:19:01;;;;;;;3.9;3.4;;;;;;;31.7;35.50977;943.4694;;;;
2021/09/06 12:21:26;;;;;;;4.5;3.5;;;;;;;31.81;35.09863;943.5161;;;;
2021/09/06 12:23:51;;;;;;;6.5;3.6;;;;;;;32.43;34.03125;943.5403;;;;
2021/09/06 12:26:17;;;;;;;3.8;3.2;;;;;;;31.87;34.66016;943.5246;;;;
2021/09/06 12:28:42;;;;;;;5.6;3.2;;;;;;;31.83;34.3457;943.5718;;;;
2021/09/06 12:31:09;;;;;;;3.9;3.2;;;;;;;31.74;34.42285;943.5685;;;;
2021/09/06 12:33:34;;;;;;;4.8;3.7;;;;;;;31.13;35.37012;943.6259;;;;
2021/09/06 12:35:59;;;;;;;5.4;3.6;;;;;;;30.41;36.42383;943.5731;;;;
2021/09/06 12:38:25;;;;;;;4.7;3.1;;;;;;;30.31;37.3584;943.637;;;;
2021/09/06 12:40:50;;;;;;;3.9;3;;;;;;;31.32;35.13281;943.646;;;;
2021/09/06 12:43:15;;;;;;;5.7;3.3;;;;;;;31.46;35.7666;943.6241;;;;
2021/09/06 12:45:41;;;;;;;3.8;3.1;;;;;;;31.65;34.63184;943.6414;;;;
2021/09/06 12:48:05;;;;;;;4.7;3.4;;;;;;;32.44;33.50488;943.6451;;;;
2021/09/06 12:50:30;;;;;;;4;3.2;;;;;;;31.94;33.03613;943.6617;;;;
2021/09/06 12:52:55;;;;;;;3.8;3.1;;;;;;;31.49;34.78711;943.6028;;;;
2021/09/06 12:55:22;;;;;;;5.9;3.4;;;;;;;32.03;33.04199;943.6619;;;;
2021/09/06 12:57:47;;;;;;;5.6;3.7;;;;;;;33.01;31.56348;943.6197;;;;
2021/09/06 13:00:12;;;;;;;5.5;3.3;;;;;;;32.96;31.77734;943.6259;;;;
2021/09/06 13:02:37;;;;;;;4.8;3.3;;;;;;;33.14;31.63379;943.6082;;;;
2021/09/06 13:05:02;;;;;;;4.5;3.3;;;;;;;33.02;31.00098;943.6788;;;;
2021/09/06 13:07:28;;;;;;;3.3;3;;;;;;;33.17;29.6416;943.6611;;;;
2021/09/06 13:09:53;;;;;;;6.1;3.2;;;;;;;33.99;29.63477;943.6566;;;;
2021/09/06 13:12:19;;;;;;;4.3;3.4;;;;;;;32.29;31.63477;943.6337;;;;
2021/09/06 13:14:44;;;;;;;3.7;3.1;;;;;;;32.13;32.69043;943.5829;;;;
2021/09/06 13:17:09;;;;;;;3.9;3.3;;;;;;;32.58;30.92285;943.6031;;;;
2021/09/06 13:19:35;;;;;;;4.4;3.3;;;;;;;32.02;31.3877;943.6213;;;;
2021/09/06 13:22:00;;;;;;;3.6;3;;;;;;;30.68;34.96387;943.5941;;;;
2021/09/06 13:24:25;;;;;;;3.3;3;;;;;;;30.48;33.99316;943.5645;;;;
2021/09/06 13:26:50;;;;;;;3.7;3;;;;;;;30.77;35.29297;943.5256;;;;
2021/09/06 13:29:15;;;;;;;3.8;2.9;;;;;;;30.89;32.8877;943.5026;;;;
2021/09/06 13:31:40;;;;;;;4.7;3.3;;;;;;;31.2;32.24121;943.5981;;;;
2021/09/06 13:34:05;;;;;;;3.9;3;;;;;;;30.1;34.47656;943.574;;;;
2021/09/06 13:36:30;;;;;;;5.5;3.2;;;;;;;28.74;37.22949;943.5989;;;;
2021/09/06 13:38:57;;;;;;;5.7;3.2;;;;;;;28.39;36.26172;943.5714;;;;
2021/09/06 13:41:21;;;;;;;3.7;3.2;;;;;;;27.83;37.11816;943.4785;;;;
2021/09/06 13:43:46;;;;;;;6.5;3.2;;;;;;;27.44;39.66113;943.5578;;;;
2021/09/06 13:46:11;;;;;;;6;3.6;;;;;;;27.44;40.59863;943.5653;;;;
2021/09/06 13:48:38;;;;;;;5.1;3.5;;;;;;;27.39;39.49023;943.483;;;;
2021/09/06 13:51:04;;;;;;;4.4;3.3;;;;;;;26.86;40.33203;943.508;;;;
2021/09/06 13:53:29;;;;;;;4.5;3.4;;;;;;;26.68;40.05566;943.5098;;;;
2021/09/06 13:55:54;;;;;;;4.3;3.3;;;;;;;26.97;40.43652;943.5369;;;;
2021/09/06 13:58:19;;;;;;;3.5;2.8;;;;;;;26.61;40.3457;943.5291;;;;
2021/09/06 14:00:44;;;;;;;4.4;3.1;;;;;;;26.52;40.91699;943.5429;;;;
2021/09/06 14:03:10;;;;;;;3.7;3.1;;;;;;;26.44;41.02832;943.5449;;;;
2021/09/06 14:05:35;;;;;;;3.3;3;;;;;;;26.03;40.61133;943.5425;;;;
2021/09/06 14:08:00;;;;;;;3.7;3;;;;;;;26.35;42.09766;943.4853;;;;
2021/09/06 14:10:25;;;;;;;5.5;3.5;;;;;;;26.44;41.62109;943.5201;;;;
2021/09/06 14:12:50;;;;;;;4.7;3.5;;;;;;;26.48;42.54785;943.5307;;;;
2021/09/06 14:15:17;;;;;;;5.5;3.5;;;;;;;26.32;42.11816;943.5731;;;;
2021/09/06 14:17:42;;;;;;;4.3;3.1;;;;;;;26.41;41.83105;943.5562;;;;